ECO2635 SBSV-SBCF
Flight info
| Callsign | ECO2635 |
|---|---|
| Flight time | 1h 26m |
| Altitude | 36000 |
| Route | GILDO UZ21 OPTEB |
| Aircraft | B738/M-SDE2E3FGHIRWXY/LB1 |
Departure
| Time | 2026-04-27 22:29 |
|---|---|
| Airport | Deputado Luiz Eduardo Magalhães International Airport (SBSV) |
Arrival
| Time | 2026-04-27 23:55 |
|---|---|
| Airport | Tancredo Neves International Airport (SBCF) |
| Time | Latitude | Longitude | Altitude | Speed | Heading |
|---|---|---|---|---|---|
| 2026-04-27 21:57 | -12.91317 | -38.32998 | 42 ft | 0 kts | 169° |
| 2026-04-27 22:22 | -12.91306 | -38.33000 | 42 ft | 2 kts | 183° |
| 2026-04-27 22:22 | -12.91291 | -38.32996 | 41 ft | 2 kts | 210° |
| 2026-04-27 22:22 | -12.91280 | -38.32986 | 41 ft | 2 kts | 235° |
| 2026-04-27 22:22 | -12.91274 | -38.32974 | 41 ft | 0 kts | 256° |
| 2026-04-27 22:23 | -12.91273 | -38.32968 | 41 ft | 1 kts | 259° |
| 2026-04-27 22:23 | -12.91273 | -38.32967 | 41 ft | 0 kts | 259° |
| 2026-04-27 22:25 | -12.91276 | -38.32982 | 41 ft | 6 kts | 259° |
| 2026-04-27 22:25 | -12.91243 | -38.33070 | 40 ft | 15 kts | 283° |
| 2026-04-27 22:26 | -12.91197 | -38.33130 | 39 ft | 16 kts | 293° |
| 2026-04-27 22:26 | -12.91213 | -38.33250 | 41 ft | 17 kts | 255° |
| 2026-04-27 22:26 | -12.91197 | -38.33378 | 42 ft | 0 kts | 294° |
| 2026-04-27 22:26 | -12.91196 | -38.33380 | 42 ft | 2 kts | 293° |
| 2026-04-27 22:27 | -12.91189 | -38.33441 | 42 ft | 15 kts | 265° |
| 2026-04-27 22:27 | -12.91143 | -38.33601 | 40 ft | 17 kts | 9° |
| 2026-04-27 22:27 | -12.91117 | -38.33525 | 41 ft | 16 kts | 77° |
| 2026-04-27 22:27 | -12.91114 | -38.33514 | 41 ft | 0 kts | 75° |
| 2026-04-27 22:28 | -12.91026 | -38.33071 | 39 ft | 93 kts | 81° |
| 2026-04-27 22:28 | -12.90918 | -38.32542 | 41 ft | 131 kts | 79° |
| 2026-04-27 22:28 | -12.90618 | -38.31094 | 483 ft | 160 kts | 78° |
| 2026-04-27 22:29 | -12.90453 | -38.30345 | 758 ft | 171 kts | 79° |
| 2026-04-27 22:29 | -12.90221 | -38.29111 | 1274 ft | 181 kts | 80° |
| 2026-04-27 22:29 | -12.89969 | -38.27776 | 1617 ft | 202 kts | 80° |
| 2026-04-27 22:29 | -12.89679 | -38.26273 | 1784 ft | 224 kts | 79° |
| 2026-04-27 22:30 | -12.89508 | -38.24637 | 2077 ft | 235 kts | 96° |
| 2026-04-27 22:30 | -12.90251 | -38.22525 | 2719 ft | 238 kts | 120° |
| 2026-04-27 22:30 | -12.90901 | -38.21603 | 3037 ft | 239 kts | 132° |
| 2026-04-27 22:30 | -12.92230 | -38.20588 | 3520 ft | 241 kts | 153° |
| 2026-04-27 22:31 | -12.93821 | -38.20090 | 3994 ft | 243 kts | 171° |
| 2026-04-27 22:31 | -12.95516 | -38.20157 | 4452 ft | 246 kts | 191° |
| 2026-04-27 22:31 | -12.97103 | -38.20834 | 4907 ft | 250 kts | 211° |
| 2026-04-27 22:31 | -12.98391 | -38.22051 | 5350 ft | 254 kts | 231° |
| 2026-04-27 22:32 | -12.99187 | -38.23675 | 5790 ft | 258 kts | 251° |
| 2026-04-27 22:32 | -12.99604 | -38.25446 | 6237 ft | 259 kts | 256° |
| 2026-04-27 22:32 | -12.99978 | -38.27260 | 6666 ft | 261 kts | 256° |
| 2026-04-27 22:32 | -13.00361 | -38.29096 | 7103 ft | 263 kts | 256° |
| 2026-04-27 22:33 | -13.00747 | -38.30927 | 7534 ft | 264 kts | 256° |
| 2026-04-27 22:33 | -13.01143 | -38.32788 | 7970 ft | 266 kts | 256° |
| 2026-04-27 22:33 | -13.01539 | -38.34654 | 8404 ft | 267 kts | 256° |
| 2026-04-27 22:33 | -13.02067 | -38.37132 | 8967 ft | 269 kts | 256° |
| 2026-04-27 22:34 | -13.02332 | -38.38376 | 9247 ft | 270 kts | 256° |
| 2026-04-27 22:34 | -13.02729 | -38.40276 | 9666 ft | 272 kts | 257° |
| 2026-04-27 22:34 | -13.03086 | -38.42181 | 10060 ft | 276 kts | 257° |
| 2026-04-27 22:34 | -13.03450 | -38.44157 | 10653 ft | 281 kts | 257° |
| 2026-04-27 22:35 | -13.03816 | -38.46146 | 11166 ft | 294 kts | 257° |
| 2026-04-27 22:35 | -13.04214 | -38.48289 | 11324 ft | 319 kts | 258° |
| 2026-04-27 22:35 | -13.04642 | -38.50597 | 11448 ft | 343 kts | 258° |
| 2026-04-27 22:35 | -13.05099 | -38.53066 | 11922 ft | 354 kts | 258° |
| 2026-04-27 22:36 | -13.05557 | -38.55550 | 12551 ft | 359 kts | 258° |
| 2026-04-27 22:36 | -13.06022 | -38.58074 | 13241 ft | 363 kts | 258° |
| 2026-04-27 22:36 | -13.06493 | -38.60634 | 13933 ft | 367 kts | 258° |
| 2026-04-27 22:36 | -13.06967 | -38.63207 | 14611 ft | 371 kts | 257° |
| 2026-04-27 22:37 | -13.07450 | -38.65823 | 15300 ft | 375 kts | 258° |
| 2026-04-27 22:37 | -13.07939 | -38.68477 | 15964 ft | 380 kts | 258° |
| 2026-04-27 22:37 | -13.08496 | -38.71158 | 16611 ft | 384 kts | 253° |
| 2026-04-27 22:37 | -13.09683 | -38.74592 | 17437 ft | 387 kts | 242° |
| 2026-04-27 22:38 | -13.10534 | -38.76205 | 17836 ft | 389 kts | 237° |
| 2026-04-27 22:38 | -13.11974 | -38.78590 | 18458 ft | 392 kts | 236° |
| 2026-04-27 22:38 | -13.13445 | -38.80962 | 19043 ft | 397 kts | 235° |
| 2026-04-27 22:38 | -13.14932 | -38.83362 | 19638 ft | 400 kts | 235° |
| 2026-04-27 22:39 | -13.16420 | -38.85772 | 20213 ft | 404 kts | 235° |
| 2026-04-27 22:39 | -13.17915 | -38.88195 | 20764 ft | 408 kts | 235° |
| 2026-04-27 22:39 | -13.19432 | -38.90659 | 21350 ft | 410 kts | 235° |
| 2026-04-27 22:39 | -13.20969 | -38.93156 | 21923 ft | 413 kts | 235° |
| 2026-04-27 22:40 | -13.22506 | -38.95654 | 22474 ft | 415 kts | 235° |
| 2026-04-27 22:40 | -13.24041 | -38.98151 | 22994 ft | 418 kts | 235° |
| 2026-04-27 22:40 | -13.25607 | -39.00699 | 23532 ft | 420 kts | 235° |
| 2026-04-27 22:40 | -13.27153 | -39.03215 | 24043 ft | 422 kts | 235° |
| 2026-04-27 22:41 | -13.28706 | -39.05741 | 24546 ft | 425 kts | 235° |
| 2026-04-27 22:41 | -13.30307 | -39.08349 | 25034 ft | 427 kts | 234° |
| 2026-04-27 22:41 | -13.31896 | -39.10936 | 25521 ft | 429 kts | 234° |
| 2026-04-27 22:41 | -13.33482 | -39.13521 | 25965 ft | 432 kts | 234° |
| 2026-04-27 22:42 | -13.35641 | -39.17039 | 26514 ft | 436 kts | 234° |
| 2026-04-27 22:42 | -13.36700 | -39.18765 | 26775 ft | 438 kts | 234° |
| 2026-04-27 22:42 | -13.38343 | -39.21444 | 27157 ft | 442 kts | 234° |
| 2026-04-27 22:42 | -13.39985 | -39.24123 | 27529 ft | 445 kts | 234° |
| 2026-04-27 22:43 | -13.41623 | -39.26794 | 27917 ft | 448 kts | 234° |
| 2026-04-27 22:43 | -13.43382 | -39.29456 | 28261 ft | 450 kts | 230° |
| 2026-04-27 22:43 | -13.45334 | -39.31961 | 28641 ft | 450 kts | 224° |
| 2026-04-27 22:43 | -13.47588 | -39.34159 | 28970 ft | 449 kts | 216° |
| 2026-04-27 22:44 | -13.50052 | -39.36099 | 29348 ft | 450 kts | 213° |
| 2026-04-27 22:44 | -13.52594 | -39.38019 | 29651 ft | 453 kts | 212° |
| 2026-04-27 22:44 | -13.55129 | -39.39922 | 29985 ft | 456 kts | 212° |
| 2026-04-27 22:44 | -13.57692 | -39.41845 | 30309 ft | 458 kts | 212° |
| 2026-04-27 22:45 | -13.61122 | -39.44418 | 30804 ft | 460 kts | 212° |
| 2026-04-27 22:45 | -13.63711 | -39.46362 | 31211 ft | 460 kts | 212° |
| 2026-04-27 22:45 | -13.65427 | -39.47651 | 31485 ft | 460 kts | 212° |
| 2026-04-27 22:45 | -13.67984 | -39.49570 | 31891 ft | 459 kts | 212° |
| 2026-04-27 22:46 | -13.70551 | -39.51496 | 32276 ft | 460 kts | 212° |
| 2026-04-27 22:46 | -13.73150 | -39.53447 | 32659 ft | 460 kts | 212° |
| 2026-04-27 22:46 | -13.75720 | -39.55376 | 33037 ft | 460 kts | 212° |
| 2026-04-27 22:46 | -13.78286 | -39.57303 | 33408 ft | 459 kts | 212° |
| 2026-04-27 22:47 | -13.80862 | -39.59238 | 33788 ft | 459 kts | 212° |
| 2026-04-27 22:47 | -13.83429 | -39.61167 | 34116 ft | 460 kts | 212° |
| 2026-04-27 22:47 | -13.85980 | -39.63084 | 34514 ft | 458 kts | 212° |
| 2026-04-27 22:47 | -13.88552 | -39.65017 | 34880 ft | 458 kts | 212° |
| 2026-04-27 22:48 | -13.91128 | -39.66954 | 35254 ft | 456 kts | 212° |
| 2026-04-27 22:48 | -13.93627 | -39.68834 | 35598 ft | 455 kts | 212° |
| 2026-04-27 22:48 | -13.96207 | -39.70775 | 35923 ft | 454 kts | 212° |
| 2026-04-27 22:48 | -13.98765 | -39.72698 | 36037 ft | 457 kts | 212° |
| 2026-04-27 22:49 | -14.01312 | -39.74615 | 36015 ft | 456 kts | 212° |
| 2026-04-27 22:49 | -14.06356 | -39.78416 | 36020 ft | 450 kts | 212° |
| 2026-04-27 22:50 | -14.11355 | -39.82180 | 36020 ft | 451 kts | 212° |
| 2026-04-27 22:50 | -14.16408 | -39.85989 | 36020 ft | 453 kts | 212° |
| 2026-04-27 22:51 | -14.21475 | -39.89812 | 36020 ft | 452 kts | 212° |
| 2026-04-27 22:51 | -14.26538 | -39.93633 | 36020 ft | 452 kts | 212° |
| 2026-04-27 22:52 | -14.32397 | -39.98058 | 36020 ft | 452 kts | 212° |
| 2026-04-27 22:52 | -14.36588 | -40.01225 | 36019 ft | 452 kts | 212° |
| 2026-04-27 22:53 | -14.41630 | -40.05038 | 36020 ft | 452 kts | 212° |
| 2026-04-27 22:53 | -14.46689 | -40.08865 | 36020 ft | 452 kts | 212° |
| 2026-04-27 22:54 | -14.51729 | -40.12680 | 36020 ft | 452 kts | 212° |
| 2026-04-27 22:54 | -14.56758 | -40.16489 | 36020 ft | 452 kts | 212° |
| 2026-04-27 22:55 | -14.61768 | -40.20287 | 36020 ft | 451 kts | 212° |
| 2026-04-27 22:55 | -14.66830 | -40.24125 | 36020 ft | 452 kts | 212° |
| 2026-04-27 22:56 | -14.71877 | -40.27956 | 36020 ft | 452 kts | 212° |
| 2026-04-27 22:56 | -14.76910 | -40.31776 | 36020 ft | 452 kts | 212° |
| 2026-04-27 22:57 | -14.81987 | -40.35634 | 36020 ft | 452 kts | 212° |
| 2026-04-27 22:57 | -14.87020 | -40.39462 | 36020 ft | 451 kts | 212° |
| 2026-04-27 22:58 | -14.92024 | -40.43269 | 36020 ft | 451 kts | 212° |
| 2026-04-27 22:58 | -14.97091 | -40.47127 | 36019 ft | 449 kts | 212° |
| 2026-04-27 22:59 | -15.02071 | -40.50922 | 36019 ft | 446 kts | 212° |
| 2026-04-27 22:59 | -15.07059 | -40.54724 | 36020 ft | 445 kts | 212° |
| 2026-04-27 23:00 | -15.14514 | -40.60322 | 35998 ft | 445 kts | 214° |
| 2026-04-27 23:00 | -15.19558 | -40.64052 | 36000 ft | 445 kts | 217° |
| 2026-04-27 23:01 | -15.24461 | -40.67880 | 36000 ft | 445 kts | 217° |
| 2026-04-27 23:01 | -15.29431 | -40.71732 | 36000 ft | 445 kts | 217° |
| 2026-04-27 23:02 | -15.34351 | -40.75521 | 36000 ft | 445 kts | 217° |
| 2026-04-27 23:02 | -15.39328 | -40.79344 | 35999 ft | 445 kts | 216° |
| 2026-04-27 23:03 | -15.44269 | -40.83134 | 36000 ft | 445 kts | 216° |
| 2026-04-27 23:03 | -15.49227 | -40.86936 | 36000 ft | 445 kts | 216° |
| 2026-04-27 23:04 | -15.54198 | -40.90748 | 36000 ft | 445 kts | 216° |
| 2026-04-27 23:04 | -15.59146 | -40.94544 | 36000 ft | 445 kts | 216° |
| 2026-04-27 23:05 | -15.64094 | -40.98342 | 36000 ft | 445 kts | 216° |
| 2026-04-27 23:05 | -15.69027 | -41.02129 | 36000 ft | 445 kts | 216° |
| 2026-04-27 23:06 | -15.74000 | -41.05951 | 36000 ft | 445 kts | 216° |
| 2026-04-27 23:06 | -15.78938 | -41.09747 | 35999 ft | 445 kts | 216° |
| 2026-04-27 23:07 | -15.83892 | -41.13557 | 36000 ft | 445 kts | 216° |
| 2026-04-27 23:07 | -15.88851 | -41.17374 | 36000 ft | 445 kts | 216° |
| 2026-04-27 23:08 | -15.93798 | -41.21184 | 35999 ft | 445 kts | 216° |
| 2026-04-27 23:08 | -15.98742 | -41.24994 | 36000 ft | 445 kts | 216° |
| 2026-04-27 23:09 | -16.03659 | -41.28785 | 35999 ft | 445 kts | 216° |
| 2026-04-27 23:09 | -16.09451 | -41.33253 | 35999 ft | 445 kts | 216° |
| 2026-04-27 23:10 | -16.14353 | -41.37038 | 36000 ft | 445 kts | 216° |
| 2026-04-27 23:10 | -16.18511 | -41.40249 | 36000 ft | 445 kts | 216° |
| 2026-04-27 23:11 | -16.23445 | -41.44063 | 36000 ft | 445 kts | 216° |
| 2026-04-27 23:11 | -16.28415 | -41.47906 | 36000 ft | 445 kts | 216° |
| 2026-04-27 23:12 | -16.33374 | -41.51745 | 36000 ft | 445 kts | 216° |
| 2026-04-27 23:12 | -16.38294 | -41.55554 | 36000 ft | 445 kts | 216° |
| 2026-04-27 23:13 | -16.43249 | -41.59394 | 36000 ft | 445 kts | 216° |
| 2026-04-27 23:13 | -16.48221 | -41.63250 | 36000 ft | 445 kts | 216° |
| 2026-04-27 23:14 | -16.53978 | -41.67717 | 36000 ft | 445 kts | 217° |
| 2026-04-27 23:14 | -16.58111 | -41.70925 | 35999 ft | 445 kts | 217° |
| 2026-04-27 23:15 | -16.63050 | -41.74763 | 36000 ft | 445 kts | 217° |
| 2026-04-27 23:15 | -16.68819 | -41.79248 | 36000 ft | 445 kts | 217° |
| 2026-04-27 23:16 | -16.72923 | -41.82441 | 36000 ft | 445 kts | 217° |
| 2026-04-27 23:16 | -16.78702 | -41.86940 | 36000 ft | 445 kts | 217° |
| 2026-04-27 23:17 | -16.82810 | -41.90140 | 36000 ft | 445 kts | 217° |
| 2026-04-27 23:17 | -16.87775 | -41.94003 | 35999 ft | 445 kts | 215° |
| 2026-04-27 23:18 | -16.92963 | -41.97444 | 36000 ft | 445 kts | 212° |
| 2026-04-27 23:18 | -16.98093 | -42.01023 | 36000 ft | 445 kts | 215° |
| 2026-04-27 23:19 | -17.03034 | -42.04862 | 35999 ft | 445 kts | 220° |
| 2026-04-27 23:19 | -17.07734 | -42.08974 | 35999 ft | 445 kts | 219° |
| 2026-04-27 23:20 | -17.12499 | -42.12989 | 35999 ft | 445 kts | 218° |
| 2026-04-27 23:20 | -17.17367 | -42.16956 | 36000 ft | 445 kts | 217° |
| 2026-04-27 23:21 | -17.22244 | -42.20863 | 36000 ft | 445 kts | 217° |
| 2026-04-27 23:21 | -17.27163 | -42.24768 | 35999 ft | 445 kts | 217° |
| 2026-04-27 23:22 | -17.32075 | -42.28649 | 36000 ft | 445 kts | 217° |
| 2026-04-27 23:22 | -17.36972 | -42.32509 | 36000 ft | 445 kts | 217° |
| 2026-04-27 23:23 | -17.41890 | -42.36380 | 35999 ft | 445 kts | 217° |
| 2026-04-27 23:23 | -17.46808 | -42.40251 | 36000 ft | 445 kts | 217° |
| 2026-04-27 23:24 | -17.51726 | -42.44123 | 36000 ft | 445 kts | 217° |
| 2026-04-27 23:24 | -17.56662 | -42.48011 | 35999 ft | 445 kts | 217° |
| 2026-04-27 23:25 | -17.61571 | -42.51879 | 36000 ft | 445 kts | 217° |
| 2026-04-27 23:25 | -17.66451 | -42.55728 | 35999 ft | 445 kts | 217° |
| 2026-04-27 23:26 | -17.71393 | -42.59628 | 35999 ft | 445 kts | 217° |
| 2026-04-27 23:26 | -17.76266 | -42.63476 | 36000 ft | 445 kts | 217° |
| 2026-04-27 23:27 | -17.81195 | -42.67371 | 36000 ft | 445 kts | 217° |
| 2026-04-27 23:27 | -17.86080 | -42.71233 | 36000 ft | 445 kts | 217° |
| 2026-04-27 23:28 | -17.91001 | -42.75127 | 36000 ft | 445 kts | 217° |
| 2026-04-27 23:28 | -17.95920 | -42.79022 | 36000 ft | 445 kts | 217° |
| 2026-04-27 23:29 | -18.00874 | -42.82947 | 36000 ft | 445 kts | 217° |
| 2026-04-27 23:29 | -18.05795 | -42.86849 | 36000 ft | 445 kts | 217° |
| 2026-04-27 23:30 | -18.10700 | -42.90742 | 36000 ft | 445 kts | 217° |
| 2026-04-27 23:30 | -18.16393 | -42.95263 | 36000 ft | 445 kts | 217° |
| 2026-04-27 23:31 | -18.20353 | -42.98410 | 35999 ft | 445 kts | 217° |
| 2026-04-27 23:31 | -18.25324 | -43.02363 | 36000 ft | 445 kts | 217° |
| 2026-04-27 23:32 | -18.30220 | -43.06259 | 36000 ft | 445 kts | 217° |
| 2026-04-27 23:32 | -18.35129 | -43.10169 | 35999 ft | 445 kts | 217° |
| 2026-04-27 23:33 | -18.40001 | -43.14048 | 35343 ft | 441 kts | 217° |
| 2026-04-27 23:33 | -18.42415 | -43.15961 | 34547 ft | 443 kts | 217° |
| 2026-04-27 23:33 | -18.44849 | -43.17887 | 33838 ft | 443 kts | 217° |
| 2026-04-27 23:34 | -18.48112 | -43.20470 | 32903 ft | 442 kts | 217° |
| 2026-04-27 23:34 | -18.49763 | -43.21778 | 32407 ft | 442 kts | 217° |
| 2026-04-27 23:34 | -18.52984 | -43.24330 | 31427 ft | 442 kts | 217° |
| 2026-04-27 23:34 | -18.54600 | -43.25612 | 30970 ft | 440 kts | 217° |
| 2026-04-27 23:35 | -18.57023 | -43.27534 | 30444 ft | 435 kts | 217° |
| 2026-04-27 23:35 | -18.60152 | -43.30016 | 29686 ft | 429 kts | 217° |
| 2026-04-27 23:35 | -18.61761 | -43.31294 | 29293 ft | 426 kts | 217° |
| 2026-04-27 23:35 | -18.64865 | -43.33759 | 28536 ft | 421 kts | 217° |
| 2026-04-27 23:36 | -18.67187 | -43.35604 | 27966 ft | 417 kts | 217° |
| 2026-04-27 23:36 | -18.68735 | -43.36834 | 27590 ft | 415 kts | 217° |
| 2026-04-27 23:36 | -18.70998 | -43.38633 | 27029 ft | 411 kts | 217° |
| 2026-04-27 23:36 | -18.73260 | -43.40432 | 26465 ft | 407 kts | 217° |
| 2026-04-27 23:37 | -18.75510 | -43.42221 | 25908 ft | 404 kts | 217° |
| 2026-04-27 23:37 | -18.78452 | -43.44562 | 25171 ft | 399 kts | 217° |
| 2026-04-27 23:37 | -18.79955 | -43.45759 | 24792 ft | 397 kts | 217° |
| 2026-04-27 23:37 | -18.82127 | -43.47489 | 24245 ft | 394 kts | 217° |
| 2026-04-27 23:38 | -18.84299 | -43.49220 | 23697 ft | 390 kts | 217° |
| 2026-04-27 23:38 | -18.86427 | -43.50915 | 23154 ft | 387 kts | 217° |
| 2026-04-27 23:38 | -18.88578 | -43.52630 | 22612 ft | 384 kts | 217° |
| 2026-04-27 23:38 | -18.90657 | -43.54287 | 22083 ft | 381 kts | 217° |
| 2026-04-27 23:39 | -18.92794 | -43.55992 | 21538 ft | 377 kts | 217° |
| 2026-04-27 23:39 | -18.94876 | -43.57653 | 21002 ft | 374 kts | 217° |
| 2026-04-27 23:39 | -18.96914 | -43.59279 | 20478 ft | 371 kts | 217° |
| 2026-04-27 23:39 | -18.99025 | -43.60873 | 19937 ft | 369 kts | 212° |
| 2026-04-27 23:40 | -19.01218 | -43.62173 | 19406 ft | 366 kts | 204° |
| 2026-04-27 23:40 | -19.03572 | -43.63067 | 18882 ft | 363 kts | 194° |
| 2026-04-27 23:40 | -19.06032 | -43.63626 | 18363 ft | 360 kts | 191° |
| 2026-04-27 23:40 | -19.09274 | -43.64263 | 17671 ft | 356 kts | 190° |
| 2026-04-27 23:41 | -19.10865 | -43.64574 | 17316 ft | 349 kts | 190° |
| 2026-04-27 23:41 | -19.13219 | -43.65035 | 16839 ft | 353 kts | 191° |
| 2026-04-27 23:41 | -19.15583 | -43.65498 | 16310 ft | 343 kts | 191° |
| 2026-04-27 23:41 | -19.17874 | -43.65948 | 15824 ft | 329 kts | 191° |
| 2026-04-27 23:42 | -19.20087 | -43.66383 | 15352 ft | 318 kts | 191° |
| 2026-04-27 23:42 | -19.22201 | -43.66800 | 14895 ft | 308 kts | 191° |
| 2026-04-27 23:42 | -19.24276 | -43.67209 | 14445 ft | 299 kts | 191° |
| 2026-04-27 23:42 | -19.26299 | -43.67607 | 14005 ft | 291 kts | 191° |
| 2026-04-27 23:43 | -19.28233 | -43.67989 | 13586 ft | 284 kts | 191° |
| 2026-04-27 23:43 | -19.30140 | -43.68365 | 13171 ft | 277 kts | 191° |
| 2026-04-27 23:43 | -19.32009 | -43.68734 | 12762 ft | 271 kts | 191° |
| 2026-04-27 23:43 | -19.34440 | -43.69213 | 12230 ft | 264 kts | 191° |
| 2026-04-27 23:44 | -19.35632 | -43.69449 | 11969 ft | 261 kts | 191° |
| 2026-04-27 23:44 | -19.37423 | -43.69802 | 11574 ft | 257 kts | 191° |
| 2026-04-27 23:44 | -19.39137 | -43.70141 | 11194 ft | 253 kts | 191° |
| 2026-04-27 23:44 | -19.40850 | -43.70479 | 10817 ft | 249 kts | 191° |
| 2026-04-27 23:45 | -19.43066 | -43.70916 | 10496 ft | 238 kts | 191° |
| 2026-04-27 23:45 | -19.44126 | -43.71126 | 10400 ft | 237 kts | 191° |
| 2026-04-27 23:45 | -19.45757 | -43.71448 | 10331 ft | 240 kts | 191° |
| 2026-04-27 23:45 | -19.47402 | -43.71773 | 10218 ft | 241 kts | 191° |
| 2026-04-27 23:46 | -19.49033 | -43.72096 | 10055 ft | 239 kts | 191° |
| 2026-04-27 23:46 | -19.50650 | -43.72416 | 9764 ft | 233 kts | 191° |
| 2026-04-27 23:46 | -19.52221 | -43.72726 | 9472 ft | 229 kts | 191° |
| 2026-04-27 23:46 | -19.53777 | -43.73034 | 9193 ft | 228 kts | 191° |
| 2026-04-27 23:47 | -19.55328 | -43.73341 | 8906 ft | 225 kts | 191° |
| 2026-04-27 23:47 | -19.56842 | -43.73641 | 8628 ft | 220 kts | 191° |
| 2026-04-27 23:47 | -19.58325 | -43.73934 | 8361 ft | 215 kts | 191° |
| 2026-04-27 23:47 | -19.59795 | -43.74225 | 8085 ft | 214 kts | 191° |
| 2026-04-27 23:48 | -19.61259 | -43.74515 | 7846 ft | 214 kts | 191° |
| 2026-04-27 23:48 | -19.62710 | -43.74802 | 7575 ft | 210 kts | 191° |
| 2026-04-27 23:48 | -19.64142 | -43.75086 | 7309 ft | 209 kts | 191° |
| 2026-04-27 23:48 | -19.65540 | -43.75363 | 7214 ft | 199 kts | 191° |
| 2026-04-27 23:49 | -19.66889 | -43.75631 | 7157 ft | 198 kts | 191° |
| 2026-04-27 23:49 | -19.68265 | -43.75903 | 7084 ft | 200 kts | 191° |
| 2026-04-27 23:49 | -19.69616 | -43.76186 | 7010 ft | 200 kts | 195° |
| 2026-04-27 23:49 | -19.70843 | -43.76859 | 6845 ft | 199 kts | 223° |
| 2026-04-27 23:50 | -19.72020 | -43.78275 | 6547 ft | 187 kts | 230° |
| 2026-04-27 23:50 | -19.72570 | -43.78964 | 6425 ft | 184 kts | 229° |
| 2026-04-27 23:50 | -19.73697 | -43.80343 | 6189 ft | 187 kts | 229° |
| 2026-04-27 23:50 | -19.74269 | -43.81034 | 6055 ft | 186 kts | 229° |
| 2026-04-27 23:51 | -19.75127 | -43.82070 | 5870 ft | 184 kts | 229° |
| 2026-04-27 23:51 | -19.75872 | -43.83141 | 5798 ft | 181 kts | 245° |
| 2026-04-27 23:51 | -19.76048 | -43.84380 | 5766 ft | 174 kts | 279° |
| 2026-04-27 23:51 | -19.75556 | -43.85576 | 5437 ft | 179 kts | 309° |
| 2026-04-27 23:52 | -19.74666 | -43.86431 | 5116 ft | 170 kts | 320° |
| 2026-04-27 23:52 | -19.73772 | -43.87248 | 4944 ft | 170 kts | 319° |
| 2026-04-27 23:52 | -19.72868 | -43.88084 | 4686 ft | 173 kts | 319° |
| 2026-04-27 23:52 | -19.71987 | -43.88900 | 4442 ft | 168 kts | 319° |
| 2026-04-27 23:53 | -19.70816 | -43.89984 | 4153 ft | 163 kts | 319° |
| 2026-04-27 23:53 | -19.70262 | -43.90497 | 3991 ft | 158 kts | 319° |
| 2026-04-27 23:53 | -19.69441 | -43.91257 | 3833 ft | 157 kts | 319° |
| 2026-04-27 23:53 | -19.68618 | -43.92019 | 3611 ft | 157 kts | 319° |
| 2026-04-27 23:54 | -19.67796 | -43.92780 | 3386 ft | 155 kts | 319° |
| 2026-04-27 23:54 | -19.66990 | -43.93526 | 3196 ft | 155 kts | 319° |
| 2026-04-27 23:54 | -19.66188 | -43.94262 | 3169 ft | 151 kts | 319° |
| 2026-04-27 23:54 | -19.65091 | -43.95277 | 2956 ft | 158 kts | 318° |
| 2026-04-27 23:55 | -19.64568 | -43.95779 | 2775 ft | 150 kts | 318° |
| 2026-04-27 23:55 | -19.63840 | -43.96456 | 2752 ft | 110 kts | 317° |
| 2026-04-27 23:55 | -19.63450 | -43.96812 | 2752 ft | 40 kts | 319° |
| 2026-04-27 23:55 | -19.63299 | -43.96953 | 2752 ft | 26 kts | 315° |
| 2026-04-27 23:56 | -19.63160 | -43.97083 | 2752 ft | 28 kts | 320° |
| 2026-04-27 23:56 | -19.62957 | -43.97229 | 2752 ft | 26 kts | 15° |
| 2026-04-27 23:56 | -19.62833 | -43.97102 | 2752 ft | 23 kts | 46° |
| 2026-04-27 23:56 | -19.62811 | -43.97007 | 2752 ft | 19 kts | 106° |
| 2026-04-27 23:57 | -19.62894 | -43.96896 | 2752 ft | 19 kts | 138° |
| 2026-04-27 23:57 | -19.62996 | -43.96806 | 2752 ft | 17 kts | 141° |
| 2026-04-27 23:57 | -19.63044 | -43.96705 | 2752 ft | 16 kts | 58° |
| 2026-04-27 23:57 | -19.63028 | -43.96682 | 2752 ft | 0 kts | 50° |